sensor_id;sensor_type;location;lat;lon;timestamp;P1;durP1;ratioP1;P2;durP2;ratioP2
41061;SDS011;26812;42.662;23.352;2022-09-19T00:01:14;2.60;;;2.40;;
41061;SDS011;26812;42.662;23.352;2022-09-19T00:03:40;2.90;;;2.30;;
41061;SDS011;26812;42.662;23.352;2022-09-19T00:06:09;3.00;;;2.38;;
41061;SDS011;26812;42.662;23.352;2022-09-19T00:08:37;2.63;;;2.45;;
41061;SDS011;26812;42.662;23.352;2022-09-19T00:11:04;2.88;;;2.22;;
41061;SDS011;26812;42.662;23.352;2022-09-19T00:13:31;4.45;;;3.63;;
41061;SDS011;26812;42.662;23.352;2022-09-19T00:15:58;4.13;;;2.75;;
41061;SDS011;26812;42.662;23.352;2022-09-19T00:18:25;3.45;;;2.80;;
41061;SDS011;26812;42.662;23.352;2022-09-19T00:20:52;2.72;;;2.53;;
41061;SDS011;26812;42.662;23.352;2022-09-19T00:23:18;2.70;;;2.45;;
41061;SDS011;26812;42.662;23.352;2022-09-19T00:26:03;3.40;;;2.85;;
41061;SDS011;26812;42.662;23.352;2022-09-19T00:28:31;2.88;;;2.53;;
41061;SDS011;26812;42.662;23.352;2022-09-19T00:30:57;3.25;;;2.85;;
41061;SDS011;26812;42.662;23.352;2022-09-19T00:33:25;4.32;;;2.63;;
41061;SDS011;26812;42.662;23.352;2022-09-19T00:35:55;2.75;;;2.55;;
41061;SDS011;26812;42.662;23.352;2022-09-19T00:38:28;2.70;;;2.50;;
41061;SDS011;26812;42.662;23.352;2022-09-19T00:40:54;3.72;;;2.40;;
41061;SDS011;26812;42.662;23.352;2022-09-19T00:43:21;3.20;;;2.90;;
41061;SDS011;26812;42.662;23.352;2022-09-19T00:45:50;3.15;;;2.75;;
41061;SDS011;26812;42.662;23.352;2022-09-19T00:48:16;4.57;;;3.00;;
41061;SDS011;26812;42.662;23.352;2022-09-19T00:50:49;2.95;;;2.55;;
41061;SDS011;26812;42.662;23.352;2022-09-19T00:53:19;2.80;;;2.60;;
41061;SDS011;26812;42.662;23.352;2022-09-19T00:55:49;3.88;;;2.88;;
41061;SDS011;26812;42.662;23.352;2022-09-19T00:58:28;3.92;;;2.80;;
41061;SDS011;26812;42.662;23.352;2022-09-19T01:00:56;2.72;;;2.45;;
41061;SDS011;26812;42.662;23.352;2022-09-19T01:03:22;3.08;;;2.78;;
41061;SDS011;26812;42.662;23.352;2022-09-19T01:06:05;3.17;;;2.85;;
41061;SDS011;26812;42.662;23.352;2022-09-19T01:08:49;3.40;;;3.10;;
41061;SDS011;26812;42.662;23.352;2022-09-19T01:14:22;4.53;;;2.78;;
41061;SDS011;26812;42.662;23.352;2022-09-19T01:16:51;3.22;;;2.92;;
41061;SDS011;26812;42.662;23.352;2022-09-19T01:22:30;3.05;;;2.70;;
41061;SDS011;26812;42.662;23.352;2022-09-19T01:31:06;3.53;;;2.72;;
41061;SDS011;26812;42.662;23.352;2022-09-19T01:33:50;3.97;;;2.90;;
41061;SDS011;26812;42.662;23.352;2022-09-19T01:36:42;5.55;;;3.08;;
41061;SDS011;26812;42.662;23.352;2022-09-19T01:39:11;7.65;;;3.53;;
41061;SDS011;26812;42.662;23.352;2022-09-19T01:41:49;3.67;;;2.72;;
41061;SDS011;26812;42.662;23.352;2022-09-19T01:44:17;3.90;;;2.80;;
41061;SDS011;26812;42.662;23.352;2022-09-19T01:46:49;4.50;;;3.50;;
41061;SDS011;26812;42.662;23.352;2022-09-19T02:00:59;3.38;;;2.13;;
41061;SDS011;26812;42.662;23.352;2022-09-19T02:06:17;3.05;;;2.40;;
41061;SDS011;26812;42.662;23.352;2022-09-19T02:09:23;2.70;;;2.40;;
41061;SDS011;26812;42.662;23.352;2022-09-19T02:11:41;3.33;;;2.50;;
41061;SDS011;26812;42.662;23.352;2022-09-19T02:14:08;3.03;;;2.40;;
41061;SDS011;26812;42.662;23.352;2022-09-19T02:16:51;3.20;;;2.40;;
41061;SDS011;26812;42.662;23.352;2022-09-19T02:19:47;4.82;;;2.75;;
41061;SDS011;26812;42.662;23.352;2022-09-19T02:22:26;3.47;;;2.85;;
41061;SDS011;26812;42.662;23.352;2022-09-19T02:24:55;3.17;;;2.85;;
41061;SDS011;26812;42.662;23.352;2022-09-19T02:27:43;2.67;;;2.47;;
41061;SDS011;26812;42.662;23.352;2022-09-19T02:30:21;4.20;;;3.15;;
41061;SDS011;26812;42.662;23.352;2022-09-19T02:32:47;2.72;;;2.53;;
41061;SDS011;26812;42.662;23.352;2022-09-19T02:35:20;2.70;;;2.25;;
41061;SDS011;26812;42.662;23.352;2022-09-19T02:37:50;4.72;;;2.03;;
41061;SDS011;26812;42.662;23.352;2022-09-19T02:40:26;2.83;;;2.53;;
41061;SDS011;26812;42.662;23.352;2022-09-19T02:45:55;4.15;;;2.83;;
41061;SDS011;26812;42.662;23.352;2022-09-19T02:48:30;2.55;;;2.35;;
41061;SDS011;26812;42.662;23.352;2022-09-19T02:53:27;3.35;;;3.03;;
41061;SDS011;26812;42.662;23.352;2022-09-19T02:55:58;2.83;;;2.63;;
41061;SDS011;26812;42.662;23.352;2022-09-19T02:58:28;3.45;;;2.72;;
41061;SDS011;26812;42.662;23.352;2022-09-19T03:01:02;3.15;;;2.72;;
41061;SDS011;26812;42.662;23.352;2022-09-19T03:03:35;3.20;;;2.90;;
41061;SDS011;26812;42.662;23.352;2022-09-19T03:09:26;3.47;;;2.75;;
41061;SDS011;26812;42.662;23.352;2022-09-19T03:11:59;2.95;;;2.63;;
41061;SDS011;26812;42.662;23.352;2022-09-19T03:14:39;4.05;;;2.58;;
41061;SDS011;26812;42.662;23.352;2022-09-19T03:17:05;5.05;;;3.60;;
41061;SDS011;26812;42.662;23.352;2022-09-19T03:19:32;3.78;;;3.40;;
41061;SDS011;26812;42.662;23.352;2022-09-19T03:21:58;3.58;;;2.83;;
41061;SDS011;26812;42.662;23.352;2022-09-19T03:24:24;3.95;;;2.95;;
41061;SDS011;26812;42.662;23.352;2022-09-19T03:26:51;3.70;;;3.30;;
41061;SDS011;26812;42.662;23.352;2022-09-19T03:29:16;5.32;;;3.42;;
41061;SDS011;26812;42.662;23.352;2022-09-19T03:31:42;4.97;;;3.95;;
41061;SDS011;26812;42.662;23.352;2022-09-19T03:34:12;5.70;;;3.38;;
41061;SDS011;26812;42.662;23.352;2022-09-19T03:36:38;5.32;;;4.13;;
41061;SDS011;26812;42.662;23.352;2022-09-19T03:39:05;5.82;;;4.95;;
41061;SDS011;26812;42.662;23.352;2022-09-19T03:41:31;4.40;;;3.92;;
41061;SDS011;26812;42.662;23.352;2022-09-19T03:43:58;4.85;;;3.47;;
41061;SDS011;26812;42.662;23.352;2022-09-19T03:46:28;4.15;;;3.55;;
41061;SDS011;26812;42.662;23.352;2022-09-19T03:48:56;7.55;;;4.25;;
41061;SDS011;26812;42.662;23.352;2022-09-19T03:51:29;7.38;;;5.10;;
41061;SDS011;26812;42.662;23.352;2022-09-19T03:53:56;4.47;;;4.07;;
41061;SDS011;26812;42.662;23.352;2022-09-19T03:56:32;4.85;;;3.90;;
41061;SDS011;26812;42.662;23.352;2022-09-19T03:59:13;3.70;;;3.40;;
41061;SDS011;26812;42.662;23.352;2022-09-19T04:01:38;4.25;;;3.85;;
41061;SDS011;26812;42.662;23.352;2022-09-19T04:04:04;6.38;;;3.45;;
41061;SDS011;26812;42.662;23.352;2022-09-19T04:06:31;4.30;;;3.67;;
41061;SDS011;26812;42.662;23.352;2022-09-19T04:08:57;4.60;;;3.78;;
41061;SDS011;26812;42.662;23.352;2022-09-19T04:11:25;4.03;;;3.60;;
41061;SDS011;26812;42.662;23.352;2022-09-19T04:13:51;4.70;;;4.10;;
41061;SDS011;26812;42.662;23.352;2022-09-19T04:16:17;5.78;;;3.70;;
41061;SDS011;26812;42.662;23.352;2022-09-19T04:18:43;5.57;;;4.03;;
41061;SDS011;26812;42.662;23.352;2022-09-19T04:21:13;4.50;;;3.88;;
41061;SDS011;26812;42.662;23.352;2022-09-19T04:23:41;6.70;;;3.78;;
41061;SDS011;26812;42.662;23.352;2022-09-19T04:26:06;4.68;;;3.95;;
41061;SDS011;26812;42.662;23.352;2022-09-19T04:28:32;6.40;;;3.67;;
41061;SDS011;26812;42.662;23.352;2022-09-19T04:30:57;6.43;;;4.13;;
41061;SDS011;26812;42.662;23.352;2022-09-19T04:33:23;5.18;;;3.58;;
41061;SDS011;26812;42.662;23.352;2022-09-19T04:35:49;4.63;;;3.83;;
41061;SDS011;26812;42.662;23.352;2022-09-19T04:38:15;4.68;;;3.80;;
41061;SDS011;26812;42.662;23.352;2022-09-19T04:40:47;4.85;;;4.32;;
41061;SDS011;26812;42.662;23.352;2022-09-19T04:43:14;5.15;;;4.13;;
41061;SDS011;26812;42.662;23.352;2022-09-19T04:45:41;5.35;;;4.25;;
41061;SDS011;26812;42.662;23.352;2022-09-19T04:48:15;5.95;;;4.60;;
41061;SDS011;26812;42.662;23.352;2022-09-19T04:50:42;9.38;;;4.45;;
41061;SDS011;26812;42.662;23.352;2022-09-19T04:53:15;4.47;;;4.05;;
41061;SDS011;26812;42.662;23.352;2022-09-19T04:55:42;5.43;;;4.90;;
41061;SDS011;26812;42.662;23.352;2022-09-19T04:58:08;6.13;;;4.90;;
41061;SDS011;26812;42.662;23.352;2022-09-19T05:00:33;5.85;;;5.22;;
41061;SDS011;26812;42.662;23.352;2022-09-19T05:03:06;7.13;;;6.43;;
41061;SDS011;26812;42.662;23.352;2022-09-19T05:05:37;8.57;;;6.38;;
41061;SDS011;26812;42.662;23.352;2022-09-19T05:08:09;9.93;;;6.63;;
41061;SDS011;26812;42.662;23.352;2022-09-19T05:10:40;9.63;;;6.28;;
41061;SDS011;26812;42.662;23.352;2022-09-19T05:13:07;7.50;;;5.57;;
41061;SDS011;26812;42.662;23.352;2022-09-19T05:15:32;7.20;;;5.57;;
41061;SDS011;26812;42.662;23.352;2022-09-19T05:17:57;8.63;;;4.80;;
41061;SDS011;26812;42.662;23.352;2022-09-19T05:20:23;7.60;;;4.45;;
41061;SDS011;26812;42.662;23.352;2022-09-19T05:22:55;3.78;;;3.38;;
41061;SDS011;26812;42.662;23.352;2022-09-19T05:25:25;6.00;;;5.13;;
41061;SDS011;26812;42.662;23.352;2022-09-19T05:27:57;3.88;;;3.47;;
41061;SDS011;26812;42.662;23.352;2022-09-19T05:30:29;5.93;;;3.80;;
41061;SDS011;26812;42.662;23.352;2022-09-19T05:32:56;4.18;;;3.42;;
41061;SDS011;26812;42.662;23.352;2022-09-19T05:35:23;4.40;;;3.80;;
41061;SDS011;26812;42.662;23.352;2022-09-19T05:37:48;5.72;;;4.03;;
41061;SDS011;26812;42.662;23.352;2022-09-19T05:40:15;5.15;;;4.13;;
41061;SDS011;26812;42.662;23.352;2022-09-19T05:42:41;5.65;;;4.85;;
41061;SDS011;26812;42.662;23.352;2022-09-19T05:45:12;5.88;;;4.18;;
41061;SDS011;26812;42.662;23.352;2022-09-19T05:47:38;4.53;;;4.13;;
41061;SDS011;26812;42.662;23.352;2022-09-19T05:50:05;4.72;;;3.70;;
41061;SDS011;26812;42.662;23.352;2022-09-19T05:52:39;4.63;;;3.95;;
41061;SDS011;26812;42.662;23.352;2022-09-19T05:55:25;7.20;;;4.18;;
41061;SDS011;26812;42.662;23.352;2022-09-19T05:57:53;6.13;;;4.10;;
41061;SDS011;26812;42.662;23.352;2022-09-19T06:00:26;5.30;;;4.60;;
41061;SDS011;26812;42.662;23.352;2022-09-19T06:05:23;6.18;;;4.75;;
41061;SDS011;26812;42.662;23.352;2022-09-19T06:07:49;7.68;;;4.72;;
41061;SDS011;26812;42.662;23.352;2022-09-19T06:10:16;6.80;;;6.07;;
41061;SDS011;26812;42.662;23.352;2022-09-19T06:12:43;8.38;;;5.80;;
41061;SDS011;26812;42.662;23.352;2022-09-19T06:15:09;8.48;;;5.57;;
41061;SDS011;26812;42.662;23.352;2022-09-19T06:17:35;6.90;;;4.35;;
41061;SDS011;26812;42.662;23.352;2022-09-19T06:20:01;9.45;;;5.35;;
41061;SDS011;26812;42.662;23.352;2022-09-19T06:22:26;6.95;;;4.85;;
41061;SDS011;26812;42.662;23.352;2022-09-19T06:24:52;5.90;;;4.10;;
41061;SDS011;26812;42.662;23.352;2022-09-19T06:27:17;6.55;;;5.00;;
41061;SDS011;26812;42.662;23.352;2022-09-19T06:29:43;5.28;;;4.07;;
41061;SDS011;26812;42.662;23.352;2022-09-19T06:32:08;5.40;;;4.45;;
41061;SDS011;26812;42.662;23.352;2022-09-19T06:34:34;4.93;;;4.18;;
41061;SDS011;26812;42.662;23.352;2022-09-19T06:37:00;4.05;;;3.70;;
41061;SDS011;26812;42.662;23.352;2022-09-19T06:39:25;5.13;;;3.53;;
41061;SDS011;26812;42.662;23.352;2022-09-19T06:41:51;4.13;;;3.05;;
41061;SDS011;26812;42.662;23.352;2022-09-19T06:44:16;4.72;;;3.15;;
41061;SDS011;26812;42.662;23.352;2022-09-19T06:46:42;4.22;;;3.17;;
41061;SDS011;26812;42.662;23.352;2022-09-19T06:49:07;4.20;;;3.53;;
41061;SDS011;26812;42.662;23.352;2022-09-19T06:51:33;5.10;;;3.47;;
41061;SDS011;26812;42.662;23.352;2022-09-19T06:54:00;7.70;;;4.38;;
41061;SDS011;26812;42.662;23.352;2022-09-19T06:56:25;6.80;;;3.55;;
41061;SDS011;26812;42.662;23.352;2022-09-19T06:58:51;4.10;;;3.35;;
41061;SDS011;26812;42.662;23.352;2022-09-19T07:01:17;5.70;;;3.65;;
41061;SDS011;26812;42.662;23.352;2022-09-19T07:03:42;5.15;;;3.38;;
41061;SDS011;26812;42.662;23.352;2022-09-19T07:06:08;5.75;;;3.58;;
41061;SDS011;26812;42.662;23.352;2022-09-19T07:08:34;4.88;;;3.40;;
41061;SDS011;26812;42.662;23.352;2022-09-19T07:11:00;4.82;;;3.78;;
41061;SDS011;26812;42.662;23.352;2022-09-19T07:13:25;5.85;;;3.72;;
41061;SDS011;26812;42.662;23.352;2022-09-19T07:15:51;5.85;;;3.85;;
41061;SDS011;26812;42.662;23.352;2022-09-19T07:18:17;3.65;;;3.35;;
41061;SDS011;26812;42.662;23.352;2022-09-19T07:20:42;3.85;;;2.60;;
41061;SDS011;26812;42.662;23.352;2022-09-19T07:23:12;6.72;;;2.75;;
41061;SDS011;26812;42.662;23.352;2022-09-19T07:25:39;5.72;;;2.70;;
41061;SDS011;26812;42.662;23.352;2022-09-19T07:28:08;4.07;;;2.55;;
41061;SDS011;26812;42.662;23.352;2022-09-19T07:30:37;3.67;;;2.88;;
41061;SDS011;26812;42.662;23.352;2022-09-19T07:33:04;5.00;;;3.22;;
41061;SDS011;26812;42.662;23.352;2022-09-19T07:35:33;3.60;;;3.30;;
41061;SDS011;26812;42.662;23.352;2022-09-19T07:38:00;2.97;;;2.60;;
41061;SDS011;26812;42.662;23.352;2022-09-19T07:40:26;5.82;;;3.47;;
41061;SDS011;26812;42.662;23.352;2022-09-19T07:42:52;6.35;;;3.72;;
41061;SDS011;26812;42.662;23.352;2022-09-19T07:45:23;3.22;;;2.78;;
41061;SDS011;26812;42.662;23.352;2022-09-19T07:47:48;4.30;;;3.45;;
41061;SDS011;26812;42.662;23.352;2022-09-19T07:50:15;4.03;;;2.97;;
41061;SDS011;26812;42.662;23.352;2022-09-19T07:52:44;5.32;;;2.88;;
41061;SDS011;26812;42.662;23.352;2022-09-19T07:55:11;5.63;;;3.10;;
41061;SDS011;26812;42.662;23.352;2022-09-19T07:57:52;2.80;;;2.60;;
41061;SDS011;26812;42.662;23.352;2022-09-19T08:00:21;3.45;;;2.67;;
41061;SDS011;26812;42.662;23.352;2022-09-19T08:02:56;2.65;;;2.45;;
41061;SDS011;26812;42.662;23.352;2022-09-19T08:05:33;4.13;;;2.85;;
41061;SDS011;26812;42.662;23.352;2022-09-19T08:08:00;4.38;;;3.47;;
41061;SDS011;26812;42.662;23.352;2022-09-19T08:10:26;2.97;;;2.70;;
41061;SDS011;26812;42.662;23.352;2022-09-19T08:12:52;2.50;;;2.30;;
41061;SDS011;26812;42.662;23.352;2022-09-19T08:15:18;4.43;;;3.17;;
41061;SDS011;26812;42.662;23.352;2022-09-19T08:17:57;4.38;;;2.72;;
41061;SDS011;26812;42.662;23.352;2022-09-19T08:20:27;3.15;;;2.38;;
41061;SDS011;26812;42.662;23.352;2022-09-19T08:22:55;3.45;;;3.15;;
41061;SDS011;26812;42.662;23.352;2022-09-19T08:25:21;4.55;;;2.60;;
41061;SDS011;26812;42.662;23.352;2022-09-19T08:27:48;2.47;;;2.08;;
41061;SDS011;26812;42.662;23.352;2022-09-19T08:30:13;4.28;;;2.50;;
41061;SDS011;26812;42.662;23.352;2022-09-19T08:32:48;3.53;;;2.45;;
41061;SDS011;26812;42.662;23.352;2022-09-19T08:35:15;4.93;;;2.20;;
41061;SDS011;26812;42.662;23.352;2022-09-19T08:37:42;4.72;;;2.58;;
41061;SDS011;26812;42.662;23.352;2022-09-19T08:40:27;7.20;;;3.38;;
41061;SDS011;26812;42.662;23.352;2022-09-19T08:49:15;3.35;;;3.00;;
41061;SDS011;26812;42.662;23.352;2022-09-19T08:53:57;3.30;;;2.92;;
41061;SDS011;26812;42.662;23.352;2022-09-19T08:56:29;6.97;;;3.92;;
41061;SDS011;26812;42.662;23.352;2022-09-19T08:58:59;5.25;;;3.28;;
41061;SDS011;26812;42.662;23.352;2022-09-19T09:01:28;4.32;;;2.92;;
41061;SDS011;26812;42.662;23.352;2022-09-19T09:15:38;2.83;;;2.15;;
41061;SDS011;26812;42.662;23.352;2022-09-19T09:18:36;2.65;;;1.70;;
41061;SDS011;26812;42.662;23.352;2022-09-19T09:23:50;4.93;;;1.58;;
41061;SDS011;26812;42.662;23.352;2022-09-19T09:26:23;1.63;;;1.30;;
41061;SDS011;26812;42.662;23.352;2022-09-19T09:29:03;2.30;;;1.48;;
41061;SDS011;26812;42.662;23.352;2022-09-19T09:31:58;2.72;;;1.50;;
41061;SDS011;26812;42.662;23.352;2022-09-19T09:34:42;1.95;;;1.40;;
41061;SDS011;26812;42.662;23.352;2022-09-19T09:37:30;1.50;;;1.23;;
41061;SDS011;26812;42.662;23.352;2022-09-19T09:43:18;3.83;;;1.80;;
41061;SDS011;26812;42.662;23.352;2022-09-19T09:45:50;1.95;;;1.80;;
41061;SDS011;26812;42.662;23.352;2022-09-19T09:51:03;3.03;;;1.70;;
41061;SDS011;26812;42.662;23.352;2022-09-19T09:53:56;3.97;;;1.20;;
41061;SDS011;26812;42.662;23.352;2022-09-19T09:56:54;2.45;;;1.20;;
41061;SDS011;26812;42.662;23.352;2022-09-19T09:59:36;1.55;;;1.40;;
41061;SDS011;26812;42.662;23.352;2022-09-19T10:02:46;1.67;;;1.13;;
41061;SDS011;26812;42.662;23.352;2022-09-19T10:05:54;1.70;;;1.60;;
41061;SDS011;26812;42.662;23.352;2022-09-19T10:08:34;5.93;;;1.98;;
41061;SDS011;26812;42.662;23.352;2022-09-19T10:13:53;2.03;;;1.15;;
41061;SDS011;26812;42.662;23.352;2022-09-19T10:16:29;2.00;;;1.27;;
41061;SDS011;26812;42.662;23.352;2022-09-19T10:19:01;4.65;;;2.15;;
41061;SDS011;26812;42.662;23.352;2022-09-19T10:21:39;2.92;;;1.83;;
41061;SDS011;26812;42.662;23.352;2022-09-19T10:32:25;3.53;;;1.30;;
41061;SDS011;26812;42.662;23.352;2022-09-19T10:37:59;1.17;;;1.08;;
41061;SDS011;26812;42.662;23.352;2022-09-19T10:40:57;3.15;;;1.98;;
41061;SDS011;26812;42.662;23.352;2022-09-19T10:43:28;3.80;;;1.52;;
41061;SDS011;26812;42.662;23.352;2022-09-19T10:45:57;1.50;;;1.30;;
41061;SDS011;26812;42.662;23.352;2022-09-19T10:50:56;1.63;;;1.17;;
41061;SDS011;26812;42.662;23.352;2022-09-19T10:53:31;2.20;;;1.38;;
41061;SDS011;26812;42.662;23.352;2022-09-19T10:56:06;1.90;;;1.65;;
41061;SDS011;26812;42.662;23.352;2022-09-19T10:58:36;3.50;;;1.52;;
41061;SDS011;26812;42.662;23.352;2022-09-19T11:01:24;2.15;;;1.60;;
41061;SDS011;26812;42.662;23.352;2022-09-19T11:04:24;4.85;;;1.75;;
41061;SDS011;26812;42.662;23.352;2022-09-19T11:09:27;3.65;;;1.55;;
41061;SDS011;26812;42.662;23.352;2022-09-19T11:12:30;3.67;;;1.30;;
41061;SDS011;26812;42.662;23.352;2022-09-19T11:14:48;5.53;;;1.80;;
41061;SDS011;26812;42.662;23.352;2022-09-19T11:39:16;2.80;;;2.25;;
41061;SDS011;26812;42.662;23.352;2022-09-19T11:53:00;4.00;;;1.70;;
41061;SDS011;26812;42.662;23.352;2022-09-19T11:58:25;2.88;;;1.58;;
41061;SDS011;26812;42.662;23.352;2022-09-19T12:03:50;3.25;;;2.20;;
41061;SDS011;26812;42.662;23.352;2022-09-19T12:09:17;4.47;;;1.88;;
41061;SDS011;26812;42.662;23.352;2022-09-19T12:11:50;2.08;;;1.42;;
41061;SDS011;26812;42.662;23.352;2022-09-19T12:16:56;5.15;;;1.65;;
41061;SDS011;26812;42.662;23.352;2022-09-19T12:19:29;4.60;;;1.90;;
41061;SDS011;26812;42.662;23.352;2022-09-19T12:22:18;4.82;;;1.50;;
41061;SDS011;26812;42.662;23.352;2022-09-19T12:24:52;2.13;;;1.50;;
41061;SDS011;26812;42.662;23.352;2022-09-19T12:27:32;3.53;;;1.45;;
41061;SDS011;26812;42.662;23.352;2022-09-19T12:33:00;2.50;;;0.88;;
41061;SDS011;26812;42.662;23.352;2022-09-19T12:35:36;2.55;;;1.30;;
41061;SDS011;26812;42.662;23.352;2022-09-19T12:41:03;2.38;;;1.60;;
41061;SDS011;26812;42.662;23.352;2022-09-19T12:43:40;3.78;;;1.85;;
41061;SDS011;26812;42.662;23.352;2022-09-19T12:46:23;1.77;;;1.10;;
41061;SDS011;26812;42.662;23.352;2022-09-19T12:51:56;1.42;;;0.93;;
41061;SDS011;26812;42.662;23.352;2022-09-19T12:57:19;2.17;;;1.00;;
41061;SDS011;26812;42.662;23.352;2022-09-19T12:59:51;2.35;;;1.13;;
41061;SDS011;26812;42.662;23.352;2022-09-19T13:07:33;1.48;;;0.85;;
41061;SDS011;26812;42.662;23.352;2022-09-19T13:10:53;2.25;;;1.25;;
41061;SDS011;26812;42.662;23.352;2022-09-19T13:13:25;1.80;;;1.05;;
41061;SDS011;26812;42.662;23.352;2022-09-19T13:16:07;3.58;;;0.90;;
41061;SDS011;26812;42.662;23.352;2022-09-19T13:18:35;2.03;;;1.25;;
41061;SDS011;26812;42.662;23.352;2022-09-19T13:21:20;3.30;;;1.52;;
41061;SDS011;26812;42.662;23.352;2022-09-19T13:24:23;3.42;;;1.17;;
41061;SDS011;26812;42.662;23.352;2022-09-19T13:26:54;2.63;;;1.50;;
41061;SDS011;26812;42.662;23.352;2022-09-19T13:37:02;2.80;;;1.02;;
41061;SDS011;26812;42.662;23.352;2022-09-19T13:40:05;1.07;;;0.83;;
41061;SDS011;26812;42.662;23.352;2022-09-19T13:51:11;2.15;;;0.93;;
41061;SDS011;26812;42.662;23.352;2022-09-19T14:04:41;1.60;;;1.20;;
41061;SDS011;26812;42.662;23.352;2022-09-19T14:08:04;5.95;;;1.20;;
41061;SDS011;26812;42.662;23.352;2022-09-19T14:13:04;2.40;;;1.05;;
41061;SDS011;26812;42.662;23.352;2022-09-19T14:21:02;1.55;;;0.57;;
41061;SDS011;26812;42.662;23.352;2022-09-19T14:23:31;2.75;;;1.50;;
41061;SDS011;26812;42.662;23.352;2022-09-19T14:34:32;1.10;;;0.50;;
41061;SDS011;26812;42.662;23.352;2022-09-19T14:56:59;2.03;;;1.02;;
41061;SDS011;26812;42.662;23.352;2022-09-19T14:59:26;2.15;;;1.00;;
41061;SDS011;26812;42.662;23.352;2022-09-19T15:01:54;1.85;;;0.90;;
41061;SDS011;26812;42.662;23.352;2022-09-19T15:04:30;2.53;;;1.77;;
41061;SDS011;26812;42.662;23.352;2022-09-19T15:06:56;3.50;;;1.20;;
41061;SDS011;26812;42.662;23.352;2022-09-19T15:09:30;2.42;;;1.30;;
41061;SDS011;26812;42.662;23.352;2022-09-19T15:12:00;1.92;;;0.60;;
41061;SDS011;26812;42.662;23.352;2022-09-19T15:14:40;3.42;;;1.10;;
41061;SDS011;26812;42.662;23.352;2022-09-19T15:19:46;4.20;;;1.20;;
41061;SDS011;26812;42.662;23.352;2022-09-19T15:22:23;5.38;;;1.42;;
41061;SDS011;26812;42.662;23.352;2022-09-19T15:24:53;2.60;;;1.17;;
41061;SDS011;26812;42.662;23.352;2022-09-19T15:27:25;1.40;;;0.70;;
41061;SDS011;26812;42.662;23.352;2022-09-19T15:29:53;1.40;;;1.05;;
41061;SDS011;26812;42.662;23.352;2022-09-19T15:32:29;1.55;;;1.20;;
41061;SDS011;26812;42.662;23.352;2022-09-19T15:35:04;1.98;;;1.33;;
41061;SDS011;26812;42.662;23.352;2022-09-19T15:37:34;1.55;;;1.30;;
41061;SDS011;26812;42.662;23.352;2022-09-19T15:40:02;1.00;;;0.73;;
41061;SDS011;26812;42.662;23.352;2022-09-19T15:42:30;2.45;;;1.13;;
41061;SDS011;26812;42.662;23.352;2022-09-19T15:44:55;1.58;;;0.93;;
41061;SDS011;26812;42.662;23.352;2022-09-19T15:47:25;2.25;;;1.40;;
41061;SDS011;26812;42.662;23.352;2022-09-19T15:49:58;1.92;;;1.48;;
41061;SDS011;26812;42.662;23.352;2022-09-19T15:54:55;2.22;;;1.48;;
41061;SDS011;26812;42.662;23.352;2022-09-19T15:57:23;3.60;;;1.45;;
41061;SDS011;26812;42.662;23.352;2022-09-19T16:02:59;1.88;;;1.45;;
41061;SDS011;26812;42.662;23.352;2022-09-19T16:07:57;3.85;;;1.73;;
41061;SDS011;26812;42.662;23.352;2022-09-19T16:10:43;2.00;;;1.25;;
41061;SDS011;26812;42.662;23.352;2022-09-19T16:15:58;3.65;;;1.50;;
41061;SDS011;26812;42.662;23.352;2022-09-19T16:18:23;1.77;;;1.40;;
41061;SDS011;26812;42.662;23.352;2022-09-19T16:20:54;2.17;;;1.15;;
41061;SDS011;26812;42.662;23.352;2022-09-19T16:23:24;1.50;;;1.25;;
41061;SDS011;26812;42.662;23.352;2022-09-19T16:26:00;0.90;;;0.80;;
41061;SDS011;26812;42.662;23.352;2022-09-19T16:33:45;0.80;;;0.80;;
41061;SDS011;26812;42.662;23.352;2022-09-19T16:36:41;2.00;;;1.10;;
41061;SDS011;26812;42.662;23.352;2022-09-19T16:41:43;5.15;;;1.70;;
41061;SDS011;26812;42.662;23.352;2022-09-19T16:46:55;2.33;;;1.77;;
41061;SDS011;26812;42.662;23.352;2022-09-19T16:49:32;3.30;;;1.50;;
41061;SDS011;26812;42.662;23.352;2022-09-19T16:51:58;2.40;;;1.48;;
41061;SDS011;26812;42.662;23.352;2022-09-19T16:54:28;3.33;;;1.63;;
41061;SDS011;26812;42.662;23.352;2022-09-19T16:56:54;6.13;;;1.85;;
41061;SDS011;26812;42.662;23.352;2022-09-19T16:59:20;3.72;;;1.75;;
41061;SDS011;26812;42.662;23.352;2022-09-19T17:01:48;2.53;;;1.70;;
41061;SDS011;26812;42.662;23.352;2022-09-19T17:04:14;3.45;;;1.83;;
41061;SDS011;26812;42.662;23.352;2022-09-19T17:06:42;2.92;;;2.03;;
41061;SDS011;26812;42.662;23.352;2022-09-19T17:09:09;2.15;;;1.70;;
41061;SDS011;26812;42.662;23.352;2022-09-19T17:11:34;2.30;;;1.50;;
41061;SDS011;26812;42.662;23.352;2022-09-19T17:14:00;5.43;;;2.28;;
41061;SDS011;26812;42.662;23.352;2022-09-19T17:16:26;3.95;;;2.35;;
41061;SDS011;26812;42.662;23.352;2022-09-19T17:18:51;3.83;;;2.45;;
41061;SDS011;26812;42.662;23.352;2022-09-19T17:21:18;4.13;;;2.60;;
41061;SDS011;26812;42.662;23.352;2022-09-19T17:23:46;3.15;;;2.13;;
41061;SDS011;26812;42.662;23.352;2022-09-19T17:26:12;3.38;;;2.45;;
41061;SDS011;26812;42.662;23.352;2022-09-19T17:28:38;3.83;;;2.50;;
41061;SDS011;26812;42.662;23.352;2022-09-19T17:31:06;8.85;;;4.00;;
41061;SDS011;26812;42.662;23.352;2022-09-19T17:33:33;4.88;;;2.97;;
41061;SDS011;26812;42.662;23.352;2022-09-19T17:35:59;5.53;;;2.70;;
41061;SDS011;26812;42.662;23.352;2022-09-19T17:38:28;5.57;;;3.45;;
41061;SDS011;26812;42.662;23.352;2022-09-19T17:40:55;5.07;;;3.20;;
41061;SDS011;26812;42.662;23.352;2022-09-19T17:43:23;6.18;;;3.72;;
41061;SDS011;26812;42.662;23.352;2022-09-19T17:45:55;7.50;;;3.05;;
41061;SDS011;26812;42.662;23.352;2022-09-19T17:48:33;7.30;;;4.22;;
41061;SDS011;26812;42.662;23.352;2022-09-19T17:51:06;7.40;;;3.47;;
41061;SDS011;26812;42.662;23.352;2022-09-19T17:53:32;12.85;;;6.72;;
41061;SDS011;26812;42.662;23.352;2022-09-19T17:56:07;9.32;;;4.40;;
41061;SDS011;26812;42.662;23.352;2022-09-19T17:58:46;8.13;;;4.28;;
41061;SDS011;26812;42.662;23.352;2022-09-19T18:01:15;7.18;;;4.50;;
41061;SDS011;26812;42.662;23.352;2022-09-19T18:04:00;6.20;;;4.03;;
41061;SDS011;26812;42.662;23.352;2022-09-19T18:06:25;5.95;;;3.10;;
41061;SDS011;26812;42.662;23.352;2022-09-19T18:08:51;5.47;;;3.10;;
41061;SDS011;26812;42.662;23.352;2022-09-19T18:11:17;7.45;;;2.63;;
41061;SDS011;26812;42.662;23.352;2022-09-19T18:13:42;2.17;;;1.60;;
41061;SDS011;26812;42.662;23.352;2022-09-19T18:16:11;6.72;;;1.80;;
41061;SDS011;26812;42.662;23.352;2022-09-19T18:18:39;2.15;;;1.60;;
41061;SDS011;26812;42.662;23.352;2022-09-19T18:21:05;2.83;;;1.63;;
41061;SDS011;26812;42.662;23.352;2022-09-19T18:23:33;3.33;;;1.80;;
41061;SDS011;26812;42.662;23.352;2022-09-19T18:26:00;2.88;;;1.55;;
41061;SDS011;26812;42.662;23.352;2022-09-19T18:28:27;3.25;;;1.50;;
41061;SDS011;26812;42.662;23.352;2022-09-19T18:31:03;3.88;;;1.42;;
41061;SDS011;26812;42.662;23.352;2022-09-19T18:33:30;3.47;;;1.45;;
41061;SDS011;26812;42.662;23.352;2022-09-19T18:36:01;1.52;;;1.30;;
41061;SDS011;26812;42.662;23.352;2022-09-19T18:38:30;2.05;;;1.63;;
41061;SDS011;26812;42.662;23.352;2022-09-19T18:40:56;1.55;;;1.40;;
41061;SDS011;26812;42.662;23.352;2022-09-19T18:43:25;1.20;;;1.10;;
41061;SDS011;26812;42.662;23.352;2022-09-19T18:45:57;1.88;;;1.15;;
41061;SDS011;26812;42.662;23.352;2022-09-19T18:48:24;5.95;;;1.70;;
41061;SDS011;26812;42.662;23.352;2022-09-19T18:50:50;1.73;;;1.40;;
41061;SDS011;26812;42.662;23.352;2022-09-19T18:53:15;1.33;;;1.23;;